sensor_id;sensor_type;location;lat;lon;timestamp;temperature;humidity
46816;DHT22;32787;53.316;8.670;2024-02-23T00:02:16;7.80;84.10
46816;DHT22;32787;53.316;8.670;2024-02-23T00:04:42;7.60;85.50
46816;DHT22;32787;53.316;8.670;2024-02-23T00:07:07;7.40;85.50
46816;DHT22;32787;53.316;8.670;2024-02-23T00:09:33;7.30;85.50
46816;DHT22;32787;53.316;8.670;2024-02-23T00:11:59;7.30;84.50
46816;DHT22;32787;53.316;8.670;2024-02-23T00:14:25;7.30;85.30
46816;DHT22;32787;53.316;8.670;2024-02-23T00:16:51;7.30;84.30
46816;DHT22;32787;53.316;8.670;2024-02-23T00:19:16;7.30;83.90
46816;DHT22;32787;53.316;8.670;2024-02-23T00:21:44;7.30;83.60
46816;DHT22;32787;53.316;8.670;2024-02-23T00:24:15;7.30;83.30
46816;DHT22;32787;53.316;8.670;2024-02-23T00:26:42;7.30;82.10
46816;DHT22;32787;53.316;8.670;2024-02-23T00:29:07;7.30;82.50
46816;DHT22;32787;53.316;8.670;2024-02-23T00:31:34;7.20;82.40
46816;DHT22;32787;53.316;8.670;2024-02-23T00:34:01;7.20;82.30
46816;DHT22;32787;53.316;8.670;2024-02-23T00:36:27;7.10;82.30
46816;DHT22;32787;53.316;8.670;2024-02-23T00:38:52;7.10;82.60
46816;DHT22;32787;53.316;8.670;2024-02-23T00:41:18;7.00;82.20
46816;DHT22;32787;53.316;8.670;2024-02-23T00:43:43;7.00;83.00
46816;DHT22;32787;53.316;8.670;2024-02-23T00:46:09;6.90;82.40
46816;DHT22;32787;53.316;8.670;2024-02-23T00:48:35;6.90;83.20
46816;DHT22;32787;53.316;8.670;2024-02-23T00:51:04;6.90;82.80
46816;DHT22;32787;53.316;8.670;2024-02-23T00:53:31;6.80;83.10
46816;DHT22;32787;53.316;8.670;2024-02-23T00:55:57;6.80;83.40
46816;DHT22;32787;53.316;8.670;2024-02-23T00:58:23;6.70;83.50
46816;DHT22;32787;53.316;8.670;2024-02-23T01:00:49;6.70;84.20
46816;DHT22;32787;53.316;8.670;2024-02-23T01:03:14;6.70;84.70
46816;DHT22;32787;53.316;8.670;2024-02-23T01:05:40;6.60;84.80
46816;DHT22;32787;53.316;8.670;2024-02-23T01:08:08;6.50;85.10
46816;DHT22;32787;53.316;8.670;2024-02-23T01:10:34;6.50;85.20
46816;DHT22;32787;53.316;8.670;2024-02-23T01:13:00;6.40;85.40
46816;DHT22;32787;53.316;8.670;2024-02-23T01:15:25;6.50;85.70
46816;DHT22;32787;53.316;8.670;2024-02-23T01:17:51;6.50;85.60
46816;DHT22;32787;53.316;8.670;2024-02-23T01:20:17;6.40;85.50
46816;DHT22;32787;53.316;8.670;2024-02-23T01:22:43;6.30;86.50
46816;DHT22;32787;53.316;8.670;2024-02-23T01:25:08;6.00;87.20
46816;DHT22;32787;53.316;8.670;2024-02-23T01:27:34;5.80;88.00
46816;DHT22;32787;53.316;8.670;2024-02-23T01:30:00;5.70;89.10
46816;DHT22;32787;53.316;8.670;2024-02-23T01:32:25;5.60;89.70
46816;DHT22;32787;53.316;8.670;2024-02-23T01:34:51;5.50;89.80
46816;DHT22;32787;53.316;8.670;2024-02-23T01:37:17;5.50;90.30
46816;DHT22;32787;53.316;8.670;2024-02-23T01:39:43;5.50;90.70
46816;DHT22;32787;53.316;8.670;2024-02-23T01:42:09;5.50;91.00
46816;DHT22;32787;53.316;8.670;2024-02-23T01:44:34;5.40;91.30
46816;DHT22;32787;53.316;8.670;2024-02-23T01:47:00;5.40;91.70
46816;DHT22;32787;53.316;8.670;2024-02-23T01:49:26;5.30;91.40
46816;DHT22;32787;53.316;8.670;2024-02-23T01:51:57;5.30;91.50
46816;DHT22;32787;53.316;8.670;2024-02-23T01:54:27;5.20;91.70
46816;DHT22;32787;53.316;8.670;2024-02-23T01:56:55;5.20;91.70
46816;DHT22;32787;53.316;8.670;2024-02-23T01:59:21;5.10;91.50
46816;DHT22;32787;53.316;8.670;2024-02-23T02:01:47;5.10;91.90
46816;DHT22;32787;53.316;8.670;2024-02-23T02:04:13;5.10;91.70
46816;DHT22;32787;53.316;8.670;2024-02-23T02:06:39;5.10;91.80
46816;DHT22;32787;53.316;8.670;2024-02-23T02:09:05;5.10;91.90
46816;DHT22;32787;53.316;8.670;2024-02-23T02:11:31;5.20;91.80
46816;DHT22;32787;53.316;8.670;2024-02-23T02:13:56;5.20;91.30
46816;DHT22;32787;53.316;8.670;2024-02-23T02:16:22;5.20;91.50
46816;DHT22;32787;53.316;8.670;2024-02-23T02:18:48;5.20;91.60
46816;DHT22;32787;53.316;8.670;2024-02-23T02:21:13;5.20;91.10
46816;DHT22;32787;53.316;8.670;2024-02-23T02:23:39;5.30;90.80
46816;DHT22;32787;53.316;8.670;2024-02-23T02:26:05;5.40;90.50
46816;DHT22;32787;53.316;8.670;2024-02-23T02:28:31;5.40;90.00
46816;DHT22;32787;53.316;8.670;2024-02-23T02:30:57;5.30;89.90
46816;DHT22;32787;53.316;8.670;2024-02-23T02:33:23;5.30;90.00
46816;DHT22;32787;53.316;8.670;2024-02-23T02:35:49;5.20;89.90
46816;DHT22;32787;53.316;8.670;2024-02-23T02:38:15;5.10;90.40
46816;DHT22;32787;53.316;8.670;2024-02-23T02:40:41;4.90;90.70
46816;DHT22;32787;53.316;8.670;2024-02-23T02:43:07;4.70;90.80
46816;DHT22;32787;53.316;8.670;2024-02-23T02:45:33;4.70;91.50
46816;DHT22;32787;53.316;8.670;2024-02-23T02:48:00;4.50;91.70
46816;DHT22;32787;53.316;8.670;2024-02-23T02:50:27;4.40;92.00
46816;DHT22;32787;53.316;8.670;2024-02-23T02:52:53;4.40;91.80
46816;DHT22;32787;53.316;8.670;2024-02-23T02:55:19;4.20;91.30
46816;DHT22;32787;53.316;8.670;2024-02-23T02:57:45;4.10;91.50
46816;DHT22;32787;53.316;8.670;2024-02-23T03:00:11;4.10;91.80
46816;DHT22;32787;53.316;8.670;2024-02-23T03:02:37;4.00;91.90
46816;DHT22;32787;53.316;8.670;2024-02-23T03:05:03;4.00;92.00
46816;DHT22;32787;53.316;8.670;2024-02-23T03:07:29;4.00;91.80
46816;DHT22;32787;53.316;8.670;2024-02-23T03:09:54;4.00;91.90
46816;DHT22;32787;53.316;8.670;2024-02-23T03:12:20;4.10;91.80
46816;DHT22;32787;53.316;8.670;2024-02-23T03:14:46;4.10;91.80
46816;DHT22;32787;53.316;8.670;2024-02-23T03:17:11;4.20;91.70
46816;DHT22;32787;53.316;8.670;2024-02-23T03:19:38;4.20;91.40
46816;DHT22;32787;53.316;8.670;2024-02-23T03:22:04;4.30;91.30
46816;DHT22;32787;53.316;8.670;2024-02-23T03:24:30;4.40;91.20
46816;DHT22;32787;53.316;8.670;2024-02-23T03:26:55;4.40;91.50
46816;DHT22;32787;53.316;8.670;2024-02-23T03:29:22;4.50;91.20
46816;DHT22;32787;53.316;8.670;2024-02-23T03:31:50;4.60;91.00
46816;DHT22;32787;53.316;8.670;2024-02-23T03:34:16;4.60;90.70
46816;DHT22;32787;53.316;8.670;2024-02-23T03:36:41;4.60;90.60
46816;DHT22;32787;53.316;8.670;2024-02-23T03:39:07;4.70;90.60
46816;DHT22;32787;53.316;8.670;2024-02-23T03:41:32;4.70;90.60
46816;DHT22;32787;53.316;8.670;2024-02-23T03:43:58;4.80;90.50
46816;DHT22;32787;53.316;8.670;2024-02-23T03:46:24;4.80;90.40
46816;DHT22;32787;53.316;8.670;2024-02-23T03:48:50;4.90;90.10
46816;DHT22;32787;53.316;8.670;2024-02-23T03:51:15;4.90;90.10
46816;DHT22;32787;53.316;8.670;2024-02-23T03:53:42;5.00;90.00
46816;DHT22;32787;53.316;8.670;2024-02-23T03:56:07;4.90;89.80
46816;DHT22;32787;53.316;8.670;2024-02-23T03:58:33;4.90;90.10
46816;DHT22;32787;53.316;8.670;2024-02-23T04:00:59;4.90;90.40
46816;DHT22;32787;53.316;8.670;2024-02-23T04:03:25;4.80;90.40
46816;DHT22;32787;53.316;8.670;2024-02-23T04:05:50;4.80;90.60
46816;DHT22;32787;53.316;8.670;2024-02-23T04:08:16;4.80;90.70
46816;DHT22;32787;53.316;8.670;2024-02-23T04:10:42;4.80;91.00
46816;DHT22;32787;53.316;8.670;2024-02-23T04:13:07;4.80;91.40
46816;DHT22;32787;53.316;8.670;2024-02-23T04:15:33;4.80;91.70
46816;DHT22;32787;53.316;8.670;2024-02-23T04:17:59;4.80;92.00
46816;DHT22;32787;53.316;8.670;2024-02-23T04:20:25;4.80;91.90
46816;DHT22;32787;53.316;8.670;2024-02-23T04:22:50;4.80;92.00
46816;DHT22;32787;53.316;8.670;2024-02-23T04:25:16;4.80;91.80
46816;DHT22;32787;53.316;8.670;2024-02-23T04:27:42;4.80;91.90
46816;DHT22;32787;53.316;8.670;2024-02-23T04:30:09;4.90;91.60
46816;DHT22;32787;53.316;8.670;2024-02-23T04:32:35;4.90;91.30
46816;DHT22;32787;53.316;8.670;2024-02-23T04:35:02;4.90;91.20
46816;DHT22;32787;53.316;8.670;2024-02-23T04:37:27;5.00;91.10
46816;DHT22;32787;53.316;8.670;2024-02-23T04:39:53;5.10;90.50
46816;DHT22;32787;53.316;8.670;2024-02-23T04:42:18;5.00;90.10
46816;DHT22;32787;53.316;8.670;2024-02-23T04:44:44;5.00;89.90
46816;DHT22;32787;53.316;8.670;2024-02-23T04:47:10;5.00;89.60
46816;DHT22;32787;53.316;8.670;2024-02-23T04:49:35;5.00;89.50
46816;DHT22;32787;53.316;8.670;2024-02-23T04:52:01;5.10;89.30
46816;DHT22;32787;53.316;8.670;2024-02-23T04:54:27;5.00;88.80
46816;DHT22;32787;53.316;8.670;2024-02-23T04:56:52;5.00;88.60
46816;DHT22;32787;53.316;8.670;2024-02-23T04:59:18;4.90;88.60
46816;DHT22;32787;53.316;8.670;2024-02-23T05:01:44;4.90;88.60
46816;DHT22;32787;53.316;8.670;2024-02-23T05:04:09;4.90;88.40
46816;DHT22;32787;53.316;8.670;2024-02-23T05:06:35;4.80;88.40
46816;DHT22;32787;53.316;8.670;2024-02-23T05:09:01;4.70;88.80
46816;DHT22;32787;53.316;8.670;2024-02-23T05:11:28;4.70;88.70
46816;DHT22;32787;53.316;8.670;2024-02-23T05:13:53;4.60;88.80
46816;DHT22;32787;53.316;8.670;2024-02-23T05:16:19;4.60;88.70
46816;DHT22;32787;53.316;8.670;2024-02-23T05:18:45;4.50;88.70
46816;DHT22;32787;53.316;8.670;2024-02-23T05:21:13;4.50;88.50
46816;DHT22;32787;53.316;8.670;2024-02-23T05:23:39;4.50;88.80
46816;DHT22;32787;53.316;8.670;2024-02-23T05:26:05;4.50;88.60
46816;DHT22;32787;53.316;8.670;2024-02-23T05:28:30;4.50;88.60
46816;DHT22;32787;53.316;8.670;2024-02-23T05:30:56;4.50;88.50
46816;DHT22;32787;53.316;8.670;2024-02-23T05:33:23;4.50;88.50
46816;DHT22;32787;53.316;8.670;2024-02-23T05:35:49;4.50;88.70
46816;DHT22;32787;53.316;8.670;2024-02-23T05:38:15;4.60;88.40
46816;DHT22;32787;53.316;8.670;2024-02-23T05:40:41;4.50;88.70
46816;DHT22;32787;53.316;8.670;2024-02-23T05:43:07;4.50;88.50
46816;DHT22;32787;53.316;8.670;2024-02-23T05:45:33;4.50;88.50
46816;DHT22;32787;53.316;8.670;2024-02-23T05:47:58;4.50;88.60
46816;DHT22;32787;53.316;8.670;2024-02-23T05:50:24;4.50;88.70
46816;DHT22;32787;53.316;8.670;2024-02-23T05:52:50;4.50;89.00
46816;DHT22;32787;53.316;8.670;2024-02-23T05:55:15;4.50;88.70
46816;DHT22;32787;53.316;8.670;2024-02-23T05:57:41;4.50;88.80
46816;DHT22;32787;53.316;8.670;2024-02-23T06:00:08;4.50;89.00
46816;DHT22;32787;53.316;8.670;2024-02-23T06:02:33;4.40;89.00
46816;DHT22;32787;53.316;8.670;2024-02-23T06:04:59;4.40;89.10
46816;DHT22;32787;53.316;8.670;2024-02-23T06:07:25;4.50;88.90
46816;DHT22;32787;53.316;8.670;2024-02-23T06:09:57;4.40;89.10
46816;DHT22;32787;53.316;8.670;2024-02-23T06:12:24;4.40;89.30
46816;DHT22;32787;53.316;8.670;2024-02-23T06:14:51;4.50;88.90
46816;DHT22;32787;53.316;8.670;2024-02-23T06:17:17;4.50;88.80
46816;DHT22;32787;53.316;8.670;2024-02-23T06:19:43;4.50;88.70
46816;DHT22;32787;53.316;8.670;2024-02-23T06:22:09;4.50;88.80
46816;DHT22;32787;53.316;8.670;2024-02-23T06:24:36;4.50;89.10
46816;DHT22;32787;53.316;8.670;2024-02-23T06:27:02;4.40;89.20
46816;DHT22;32787;53.316;8.670;2024-02-23T06:29:29;4.40;89.50
46816;DHT22;32787;53.316;8.670;2024-02-23T06:31:55;4.40;89.80
46816;DHT22;32787;53.316;8.670;2024-02-23T06:34:21;4.30;90.00
46816;DHT22;32787;53.316;8.670;2024-02-23T06:36:47;4.40;90.00
46816;DHT22;32787;53.316;8.670;2024-02-23T06:39:13;4.40;89.80
46816;DHT22;32787;53.316;8.670;2024-02-23T06:41:39;4.30;90.00
46816;DHT22;32787;53.316;8.670;2024-02-23T06:44:05;4.30;90.10
46816;DHT22;32787;53.316;8.670;2024-02-23T06:46:30;4.30;90.10
46816;DHT22;32787;53.316;8.670;2024-02-23T06:48:56;4.30;90.00
46816;DHT22;32787;53.316;8.670;2024-02-23T06:51:22;4.40;90.00
46816;DHT22;32787;53.316;8.670;2024-02-23T06:53:47;4.40;89.90
46816;DHT22;32787;53.316;8.670;2024-02-23T06:56:13;4.60;89.80
46816;DHT22;32787;53.316;8.670;2024-02-23T06:58:39;4.60;89.60
46816;DHT22;32787;53.316;8.670;2024-02-23T07:01:05;4.60;89.60
46816;DHT22;32787;53.316;8.670;2024-02-23T07:03:33;4.60;89.70
46816;DHT22;32787;53.316;8.670;2024-02-23T07:05:58;4.70;89.80
46816;DHT22;32787;53.316;8.670;2024-02-23T07:08:24;4.80;89.60
46816;DHT22;32787;53.316;8.670;2024-02-23T07:10:50;4.90;89.20
46816;DHT22;32787;53.316;8.670;2024-02-23T07:13:16;5.00;89.00
46816;DHT22;32787;53.316;8.670;2024-02-23T07:15:43;4.90;88.90
46816;DHT22;32787;53.316;8.670;2024-02-23T07:18:09;4.90;88.90
46816;DHT22;32787;53.316;8.670;2024-02-23T07:20:37;5.00;88.70
46816;DHT22;32787;53.316;8.670;2024-02-23T07:23:04;5.10;88.60
46816;DHT22;32787;53.316;8.670;2024-02-23T07:25:30;5.30;88.20
46816;DHT22;32787;53.316;8.670;2024-02-23T07:27:56;5.50;87.40
46816;DHT22;32787;53.316;8.670;2024-02-23T07:30:22;5.90;87.00
46816;DHT22;32787;53.316;8.670;2024-02-23T07:32:47;6.00;86.10
46816;DHT22;32787;53.316;8.670;2024-02-23T07:35:13;6.10;85.30
46816;DHT22;32787;53.316;8.670;2024-02-23T07:37:39;5.90;85.30
46816;DHT22;32787;53.316;8.670;2024-02-23T07:40:06;5.80;85.10
46816;DHT22;32787;53.316;8.670;2024-02-23T07:42:32;5.60;85.20
46816;DHT22;32787;53.316;8.670;2024-02-23T07:44:58;5.50;85.30
46816;DHT22;32787;53.316;8.670;2024-02-23T07:47:24;5.70;85.30
46816;DHT22;32787;53.316;8.670;2024-02-23T07:49:52;5.90;84.20
46816;DHT22;32787;53.316;8.670;2024-02-23T07:52:18;6.20;82.90
46816;DHT22;32787;53.316;8.670;2024-02-23T07:54:44;6.20;82.60
46816;DHT22;32787;53.316;8.670;2024-02-23T07:57:10;6.00;82.50
46816;DHT22;32787;53.316;8.670;2024-02-23T07:59:36;5.90;83.40
46816;DHT22;32787;53.316;8.670;2024-02-23T08:02:01;5.80;83.60
46816;DHT22;32787;53.316;8.670;2024-02-23T08:04:27;5.80;83.50
46816;DHT22;32787;53.316;8.670;2024-02-23T08:06:53;5.80;83.40
46816;DHT22;32787;53.316;8.670;2024-02-23T08:09:18;5.90;83.30
46816;DHT22;32787;53.316;8.670;2024-02-23T08:11:44;5.90;84.00
46816;DHT22;32787;53.316;8.670;2024-02-23T08:14:11;5.90;83.20
46816;DHT22;32787;53.316;8.670;2024-02-23T08:16:36;6.00;83.00
46816;DHT22;32787;53.316;8.670;2024-02-23T08:19:02;6.30;82.70
46816;DHT22;32787;53.316;8.670;2024-02-23T08:21:28;7.00;80.70
46816;DHT22;32787;53.316;8.670;2024-02-23T08:23:53;7.30;79.70
46816;DHT22;32787;53.316;8.670;2024-02-23T08:26:19;7.40;79.10
46816;DHT22;32787;53.316;8.670;2024-02-23T08:28:45;7.40;78.50
46816;DHT22;32787;53.316;8.670;2024-02-23T08:31:10;7.30;79.20
46816;DHT22;32787;53.316;8.670;2024-02-23T08:33:36;7.30;78.40
46816;DHT22;32787;53.316;8.670;2024-02-23T08:36:01;7.00;79.50
46816;DHT22;32787;53.316;8.670;2024-02-23T08:38:31;7.00;79.70
46816;DHT22;32787;53.316;8.670;2024-02-23T08:40:57;6.80;80.10
46816;DHT22;32787;53.316;8.670;2024-02-23T08:43:24;6.70;80.90
46816;DHT22;32787;53.316;8.670;2024-02-23T08:45:50;6.70;80.90
46816;DHT22;32787;53.316;8.670;2024-02-23T08:48:16;6.70;81.10
46816;DHT22;32787;53.316;8.670;2024-02-23T08:50:43;6.70;81.00
46816;DHT22;32787;53.316;8.670;2024-02-23T08:53:09;6.80;81.40
46816;DHT22;32787;53.316;8.670;2024-02-23T08:55:35;6.70;80.50
46816;DHT22;32787;53.316;8.670;2024-02-23T08:58:00;6.70;81.10
46816;DHT22;32787;53.316;8.670;2024-02-23T09:00:26;6.80;81.30
46816;DHT22;32787;53.316;8.670;2024-02-23T09:02:52;6.90;81.10
46816;DHT22;32787;53.316;8.670;2024-02-23T09:05:17;7.10;80.70
46816;DHT22;32787;53.316;8.670;2024-02-23T09:07:43;7.10;80.40
46816;DHT22;32787;53.316;8.670;2024-02-23T09:10:10;7.20;79.90
46816;DHT22;32787;53.316;8.670;2024-02-23T09:12:37;7.20;79.70
46816;DHT22;32787;53.316;8.670;2024-02-23T09:15:03;7.30;80.00
46816;DHT22;32787;53.316;8.670;2024-02-23T09:17:29;7.30;80.00
46816;DHT22;32787;53.316;8.670;2024-02-23T09:19:54;7.20;80.20
46816;DHT22;32787;53.316;8.670;2024-02-23T09:22:20;7.30;80.20
46816;DHT22;32787;53.316;8.670;2024-02-23T09:24:45;7.60;78.50
46816;DHT22;32787;53.316;8.670;2024-02-23T09:27:11;7.60;79.10
46816;DHT22;32787;53.316;8.670;2024-02-23T09:29:37;7.70;78.80
46816;DHT22;32787;53.316;8.670;2024-02-23T09:32:03;7.60;78.00
46816;DHT22;32787;53.316;8.670;2024-02-23T09:34:30;7.50;79.30
46816;DHT22;32787;53.316;8.670;2024-02-23T09:36:56;7.60;79.00
46816;DHT22;32787;53.316;8.670;2024-02-23T09:39:21;7.70;78.70
46816;DHT22;32787;53.316;8.670;2024-02-23T09:41:50;7.80;78.20
46816;DHT22;32787;53.316;8.670;2024-02-23T09:44:18;7.80;77.90
46816;DHT22;32787;53.316;8.670;2024-02-23T09:46:44;7.80;78.10
46816;DHT22;32787;53.316;8.670;2024-02-23T09:49:11;7.80;78.10
46816;DHT22;32787;53.316;8.670;2024-02-23T09:51:39;7.70;77.10
46816;DHT22;32787;53.316;8.670;2024-02-23T09:54:04;7.70;77.50
46816;DHT22;32787;53.316;8.670;2024-02-23T09:56:30;7.80;77.30
46816;DHT22;32787;53.316;8.670;2024-02-23T09:58:58;7.80;77.70
46816;DHT22;32787;53.316;8.670;2024-02-23T10:01:28;7.60;76.70
46816;DHT22;32787;53.316;8.670;2024-02-23T10:03:57;7.70;77.40
46816;DHT22;32787;53.316;8.670;2024-02-23T10:06:24;7.70;77.20
46816;DHT22;32787;53.316;8.670;2024-02-23T10:08:49;7.70;77.90
46816;DHT22;32787;53.316;8.670;2024-02-23T10:11:18;7.70;77.00
46816;DHT22;32787;53.316;8.670;2024-02-23T10:13:44;7.70;75.50
46816;DHT22;32787;53.316;8.670;2024-02-23T10:16:10;7.80;75.40
46816;DHT22;32787;53.316;8.670;2024-02-23T10:18:38;7.90;75.00
46816;DHT22;32787;53.316;8.670;2024-02-23T10:21:05;7.90;74.50
46816;DHT22;32787;53.316;8.670;2024-02-23T10:23:31;7.90;74.70
46816;DHT22;32787;53.316;8.670;2024-02-23T10:25:56;7.90;74.50
46816;DHT22;32787;53.316;8.670;2024-02-23T10:28:22;8.10;73.60
46816;DHT22;32787;53.316;8.670;2024-02-23T10:30:48;8.20;74.70
46816;DHT22;32787;53.316;8.670;2024-02-23T10:33:14;8.20;74.10
46816;DHT22;32787;53.316;8.670;2024-02-23T10:35:41;8.20;73.90
46816;DHT22;32787;53.316;8.670;2024-02-23T10:38:11;8.30;74.40
46816;DHT22;32787;53.316;8.670;2024-02-23T10:40:39;8.30;75.30
46816;DHT22;32787;53.316;8.670;2024-02-23T10:43:12;8.20;73.60
46816;DHT22;32787;53.316;8.670;2024-02-23T10:45:39;8.20;74.60
46816;DHT22;32787;53.316;8.670;2024-02-23T10:48:07;8.40;74.60
46816;DHT22;32787;53.316;8.670;2024-02-23T10:50:35;8.30;74.10
46816;DHT22;32787;53.316;8.670;2024-02-23T10:53:01;8.20;73.50
46816;DHT22;32787;53.316;8.670;2024-02-23T10:55:28;8.10;74.80
46816;DHT22;32787;53.316;8.670;2024-02-23T10:57:55;8.10;74.30
46816;DHT22;32787;53.316;8.670;2024-02-23T11:00:22;8.10;74.10
46816;DHT22;32787;53.316;8.670;2024-02-23T11:02:51;8.00;74.30
46816;DHT22;32787;53.316;8.670;2024-02-23T11:05:18;8.00;74.20
46816;DHT22;32787;53.316;8.670;2024-02-23T11:07:47;8.00;72.80
46816;DHT22;32787;53.316;8.670;2024-02-23T11:10:17;8.10;72.70
46816;DHT22;32787;53.316;8.670;2024-02-23T11:12:44;8.10;73.30
46816;DHT22;32787;53.316;8.670;2024-02-23T11:15:09;8.10;73.40
46816;DHT22;32787;53.316;8.670;2024-02-23T11:17:50;8.10;73.50
46816;DHT22;32787;53.316;8.670;2024-02-23T11:20:16;8.20;73.80
46816;DHT22;32787;53.316;8.670;2024-02-23T11:22:42;8.20;73.30
46816;DHT22;32787;53.316;8.670;2024-02-23T11:25:08;8.30;72.50
46816;DHT22;32787;53.316;8.670;2024-02-23T11:27:38;8.30;72.80
46816;DHT22;32787;53.316;8.670;2024-02-23T11:30:09;8.20;71.00
46816;DHT22;32787;53.316;8.670;2024-02-23T11:32:47;8.20;71.80
46816;DHT22;32787;53.316;8.670;2024-02-23T11:35:15;8.40;73.00
46816;DHT22;32787;53.316;8.670;2024-02-23T11:37:59;8.50;72.00
46816;DHT22;32787;53.316;8.670;2024-02-23T11:40:31;8.60;72.80
46816;DHT22;32787;53.316;8.670;2024-02-23T11:42:57;8.60;72.50
46816;DHT22;32787;53.316;8.670;2024-02-23T11:45:25;8.90;72.60
46816;DHT22;32787;53.316;8.670;2024-02-23T11:47:53;9.10;71.90
46816;DHT22;32787;53.316;8.670;2024-02-23T11:50:18;9.10;72.40
46816;DHT22;32787;53.316;8.670;2024-02-23T11:52:47;9.00;71.00
46816;DHT22;32787;53.316;8.670;2024-02-23T11:55:18;8.90;71.60
46816;DHT22;32787;53.316;8.670;2024-02-23T11:57:45;8.60;70.80
46816;DHT22;32787;53.316;8.670;2024-02-23T12:00:11;8.80;71.60
46816;DHT22;32787;53.316;8.670;2024-02-23T12:02:37;8.90;71.00
46816;DHT22;32787;53.316;8.670;2024-02-23T12:05:02;9.00;71.90
46816;DHT22;32787;53.316;8.670;2024-02-23T12:07:29;9.00;72.60
46816;DHT22;32787;53.316;8.670;2024-02-23T12:09:58;9.10;72.00
46816;DHT22;32787;53.316;8.670;2024-02-23T12:12:25;8.90;72.40
46816;DHT22;32787;53.316;8.670;2024-02-23T12:14:52;8.80;71.70
46816;DHT22;32787;53.316;8.670;2024-02-23T12:17:17;8.40;71.70
46816;DHT22;32787;53.316;8.670;2024-02-23T12:19:43;8.40;72.50
46816;DHT22;32787;53.316;8.670;2024-02-23T12:22:10;8.40;73.20
46816;DHT22;32787;53.316;8.670;2024-02-23T12:24:37;8.30;73.80
46816;DHT22;32787;53.316;8.670;2024-02-23T12:27:03;8.20;73.90
46816;DHT22;32787;53.316;8.670;2024-02-23T12:29:30;8.10;73.50
46816;DHT22;32787;53.316;8.670;2024-02-23T12:32:05;8.00;73.50
46816;DHT22;32787;53.316;8.670;2024-02-23T12:34:32;8.00;74.00
46816;DHT22;32787;53.316;8.670;2024-02-23T12:36:57;8.00;73.60
46816;DHT22;32787;53.316;8.670;2024-02-23T12:39:23;8.10;73.80
46816;DHT22;32787;53.316;8.670;2024-02-23T12:41:49;8.10;73.50
46816;DHT22;32787;53.316;8.670;2024-02-23T12:44:16;8.10;73.50
46816;DHT22;32787;53.316;8.670;2024-02-23T12:46:41;8.20;72.80
46816;DHT22;32787;53.316;8.670;2024-02-23T12:49:07;8.30;73.20
46816;DHT22;32787;53.316;8.670;2024-02-23T12:51:33;8.30;73.10
46816;DHT22;32787;53.316;8.670;2024-02-23T12:53:59;8.30;72.70
46816;DHT22;32787;53.316;8.670;2024-02-23T12:56:25;8.60;73.10
46816;DHT22;32787;53.316;8.670;2024-02-23T12:58:51;8.80;71.80
46816;DHT22;32787;53.316;8.670;2024-02-23T13:01:19;8.70;71.70
46816;DHT22;32787;53.316;8.670;2024-02-23T13:03:45;8.80;71.60
46816;DHT22;32787;53.316;8.670;2024-02-23T13:06:11;9.10;71.80
46816;DHT22;32787;53.316;8.670;2024-02-23T13:08:36;9.40;71.10
46816;DHT22;32787;53.316;8.670;2024-02-23T13:11:04;9.30;70.70
46816;DHT22;32787;53.316;8.670;2024-02-23T13:13:29;9.10;69.30
46816;DHT22;32787;53.316;8.670;2024-02-23T13:15:55;8.90;70.80
46816;DHT22;32787;53.316;8.670;2024-02-23T13:18:22;8.80;71.30
46816;DHT22;32787;53.316;8.670;2024-02-23T13:20:48;8.90;71.30
46816;DHT22;32787;53.316;8.670;2024-02-23T13:23:14;9.00;69.20
46816;DHT22;32787;53.316;8.670;2024-02-23T13:25:41;9.10;70.50
46816;DHT22;32787;53.316;8.670;2024-02-23T13:28:08;9.00;69.90
46816;DHT22;32787;53.316;8.670;2024-02-23T13:30:34;8.90;69.60
46816;DHT22;32787;53.316;8.670;2024-02-23T13:33:00;8.90;71.30
46816;DHT22;32787;53.316;8.670;2024-02-23T13:35:26;9.00;70.00
46816;DHT22;32787;53.316;8.670;2024-02-23T13:37:52;9.10;70.30
46816;DHT22;32787;53.316;8.670;2024-02-23T13:40:18;9.10;70.30
46816;DHT22;32787;53.316;8.670;2024-02-23T13:42:44;9.00;70.20
46816;DHT22;32787;53.316;8.670;2024-02-23T13:45:15;8.90;70.30
46816;DHT22;32787;53.316;8.670;2024-02-23T13:47:43;8.90;70.30
46816;DHT22;32787;53.316;8.670;2024-02-23T13:50:10;9.00;71.10
46816;DHT22;32787;53.316;8.670;2024-02-23T13:52:37;9.10;70.10
46816;DHT22;32787;53.316;8.670;2024-02-23T13:55:02;9.10;70.20
46816;DHT22;32787;53.316;8.670;2024-02-23T13:57:28;9.10;70.60
46816;DHT22;32787;53.316;8.670;2024-02-23T13:59:54;8.90;71.60
46816;DHT22;32787;53.316;8.670;2024-02-23T14:02:25;8.90;71.60
46816;DHT22;32787;53.316;8.670;2024-02-23T14:04:52;8.80;71.40
46816;DHT22;32787;53.316;8.670;2024-02-23T14:07:17;8.80;71.60
46816;DHT22;32787;53.316;8.670;2024-02-23T14:09:43;9.10;72.40
46816;DHT22;32787;53.316;8.670;2024-02-23T14:12:09;9.10;70.90
46816;DHT22;32787;53.316;8.670;2024-02-23T14:14:34;9.10;69.80
46816;DHT22;32787;53.316;8.670;2024-02-23T14:17:00;9.10;71.90
46816;DHT22;32787;53.316;8.670;2024-02-23T14:19:26;9.10;71.50
46816;DHT22;32787;53.316;8.670;2024-02-23T14:21:52;9.10;71.30
46816;DHT22;32787;53.316;8.670;2024-02-23T14:24:17;9.10;72.20
46816;DHT22;32787;53.316;8.670;2024-02-23T14:26:43;8.90;71.80
46816;DHT22;32787;53.316;8.670;2024-02-23T14:29:09;8.80;73.00
46816;DHT22;32787;53.316;8.670;2024-02-23T14:31:34;8.80;72.70
46816;DHT22;32787;53.316;8.670;2024-02-23T14:34:00;8.80;72.70
46816;DHT22;32787;53.316;8.670;2024-02-23T14:36:26;8.80;73.40
46816;DHT22;32787;53.316;8.670;2024-02-23T14:38:52;8.80;74.10
46816;DHT22;32787;53.316;8.670;2024-02-23T14:41:17;8.80;74.00
46816;DHT22;32787;53.316;8.670;2024-02-23T14:43:43;8.70;74.60
46816;DHT22;32787;53.316;8.670;2024-02-23T14:46:09;8.70;74.80
46816;DHT22;32787;53.316;8.670;2024-02-23T14:48:35;8.70;74.80
46816;DHT22;32787;53.316;8.670;2024-02-23T14:51:00;8.50;75.80
46816;DHT22;32787;53.316;8.670;2024-02-23T14:53:29;8.50;76.10
46816;DHT22;32787;53.316;8.670;2024-02-23T14:55:54;8.40;76.10
46816;DHT22;32787;53.316;8.670;2024-02-23T14:58:20;8.40;76.40
46816;DHT22;32787;53.316;8.670;2024-02-23T15:00:46;8.30;76.20
46816;DHT22;32787;53.316;8.670;2024-02-23T15:03:12;8.30;76.70
46816;DHT22;32787;53.316;8.670;2024-02-23T15:05:38;8.20;76.60
46816;DHT22;32787;53.316;8.670;2024-02-23T15:08:04;8.20;77.20
46816;DHT22;32787;53.316;8.670;2024-02-23T15:10:30;8.20;78.00
46816;DHT22;32787;53.316;8.670;2024-02-23T15:12:56;8.40;78.30
46816;DHT22;32787;53.316;8.670;2024-02-23T15:15:22;8.20;77.80
46816;DHT22;32787;53.316;8.670;2024-02-23T15:17:47;8.20;77.90
46816;DHT22;32787;53.316;8.670;2024-02-23T15:20:14;8.10;78.60
46816;DHT22;32787;53.316;8.670;2024-02-23T15:22:40;8.10;79.80
46816;DHT22;32787;53.316;8.670;2024-02-23T15:25:08;7.90;81.40
46816;DHT22;32787;53.316;8.670;2024-02-23T15:27:35;7.80;81.70
46816;DHT22;32787;53.316;8.670;2024-02-23T15:30:01;7.60;82.30
46816;DHT22;32787;53.316;8.670;2024-02-23T15:32:27;7.60;81.90
46816;DHT22;32787;53.316;8.670;2024-02-23T15:34:52;7.50;81.80
46816;DHT22;32787;53.316;8.670;2024-02-23T15:37:18;7.60;82.00
46816;DHT22;32787;53.316;8.670;2024-02-23T15:39:43;7.50;80.70